Time;durP1;ratioP1;P1;durP2;ratioP2;P2;SDS_P1;SDS_P2;PMS_P1;PMS_P2;Temp;Humidity;BMP_temperature;BMP_pressure;BME280_temperature;BME280_humidity;BME280_pressure;Samples;Min_cycle;Max_cycle;Signal;HPM_P1;HPM_P2
2022/12/06 16:54:43;;;;;;;9.32;3.92;;;5.40;99.90;;;;;;5130710;27;20542;-64
2022/12/06 16:57:12;;;;;;;9.55;4.75;;;5.40;99.90;;;;;;5148934;27;20040;-63
2022/12/06 16:59:39;;;;;;;10.00;4.78;;;5.50;99.90;;;;;;5136531;27;20027;-65
2022/12/06 17:02:23;;;;;;;7.75;4.35;;;5.60;99.90;;;;;;5105086;28;20467;-64
2022/12/06 17:04:49;;;;;;;10.52;5.43;;;5.70;99.90;;;;;;5123627;28;20071;-64
2022/12/06 17:07:14;;;;;;;12.13;4.97;;;5.80;99.90;;;;;;5126658;28;20449;-65
2022/12/06 17:09:40;;;;;;;10.25;4.93;;;5.80;99.90;;;;;;5109150;28;20039;-64
2022/12/06 17:12:11;;;;;;;10.95;5.35;;;5.90;99.90;;;;;;5124129;27;20023;-63
2022/12/06 17:14:37;;;;;;;;;;;5.90;99.90;;;;;;5107385;28;20035;-64
2022/12/06 17:17:04;;;;;;;10.88;5.25;;;6.00;99.90;;;;;;5108792;28;19912;-64
2022/12/06 17:19:30;;;;;;;13.57;5.68;;;5.90;99.90;;;;;;5127988;28;20019;-64
2022/12/06 17:21:56;;;;;;;10.40;5.50;;;5.90;99.90;;;;;;5108590;28;20040;-63
2022/12/06 17:24:24;;;;;;;11.15;5.75;;;5.90;99.90;;;;;;5127258;28;20495;-64
2022/12/06 17:26:54;;;;;;;11.00;5.35;;;5.90;99.90;;;;;;5125295;28;20534;-64
2022/12/06 17:29:22;;;;;;;10.23;5.25;;;5.90;99.90;;;;;;5108926;28;20027;-64
2022/12/06 17:31:48;;;;;;;9.65;5.53;;;5.90;99.90;;;;;;5127556;28;20058;-65
2022/12/06 17:34:14;;;;;;;10.18;6.10;;;5.90;99.90;;;;;;5127348;28;20071;-65
2022/12/06 17:36:42;;;;;;;11.10;5.50;;;5.90;99.90;;;;;;5114960;28;20019;-66
2022/12/06 17:39:12;;;;;;;10.57;5.63;;;5.90;99.90;;;;;;5125526;28;20518;-65
2022/12/06 17:44:23;;;;;;;11.60;6.03;;;6.00;99.90;;;;;;5107051;28;20070;-64
2022/12/06 17:46:49;;;;;;;11.13;6.63;;;6.00;99.90;;;;;;5107808;28;20457;-62
2022/12/06 17:49:23;;;;;;;10.77;5.93;;;6.00;99.90;;;;;;5126684;27;20409;-65
2022/12/06 17:51:49;;;;;;;11.70;6.55;;;6.00;99.90;;;;;;5147839;27;20027;-63
2022/12/06 17:54:15;;;;;;;10.57;5.70;;;5.80;99.90;;;;;;5147566;27;20047;-63
2022/12/06 17:56:43;;;;;;;12.50;6.57;;;5.80;99.90;;;;;;5125238;27;20077;-62
2022/12/06 17:59:11;;;;;;;14.65;7.55;;;5.80;99.90;;;;;;5127162;28;20015;-62
2022/12/06 18:01:38;;;;;;;13.68;7.60;;;5.80;99.90;;;;;;5109097;28;20375;-62
2022/12/06 18:04:06;;;;;;;13.45;7.22;;;5.80;99.90;;;;;;5105796;28;20038;-63
2022/12/06 18:06:34;;;;;;;12.65;8.32;;;5.80;99.90;;;;;;5108810;28;20108;-63
2022/12/06 18:09:00;;;;;;;18.33;9.45;;;5.70;99.90;;;;;;5095643;28;20023;-64
2022/12/06 18:11:27;;;;;;;19.45;11.27;;;5.60;99.90;;;;;;5112768;28;20020;-64
2022/12/06 18:13:56;;;;;;;14.13;8.88;;;5.60;99.90;;;;;;5103910;28;20097;-62
2022/12/06 18:16:26;;;;;;;15.77;8.00;;;5.50;99.90;;;;;;5094303;28;20093;-64
2022/12/06 18:18:55;;;;;;;17.58;8.57;;;5.40;99.90;;;;;;5092489;28;20020;-64
2022/12/06 18:21:23;;;;;;;15.23;8.50;;;5.40;99.90;;;;;;5092907;28;20046;-64
2022/12/06 18:23:49;;;;;;;14.20;7.32;;;5.40;99.90;;;;;;5106350;28;20380;-63
2022/12/06 18:26:15;;;;;;;16.10;7.60;;;5.30;99.90;;;;;;5102547;28;20365;-63
2022/12/06 18:28:43;;;;;;;14.93;8.25;;;5.30;99.90;;;;;;5093706;28;20028;-63
2022/12/06 18:31:10;;;;;;;16.05;8.73;;;5.30;99.90;;;;;;5093255;28;20050;-63
2022/12/06 18:33:37;;;;;;;14.60;9.02;;;5.30;99.90;;;;;;5093036;28;20078;-63
2022/12/06 18:36:04;;;;;;;16.52;9.23;;;5.40;99.90;;;;;;5093505;28;20077;-63
2022/12/06 18:38:30;;;;;;;17.52;9.52;;;5.40;99.90;;;;;;5074802;28;20020;-63
2022/12/06 18:41:12;;;;;;;16.08;9.63;;;5.40;99.90;;;;;;5075512;28;20017;-64
2022/12/06 18:43:38;;;;;;;;;;;5.40;99.90;;;;;;5075718;28;20020;-64
2022/12/06 18:46:06;;;;;;;19.25;9.82;;;5.30;99.90;;;;;;5099965;28;19982;-61
2022/12/06 18:48:36;;;;;;;14.98;9.50;;;5.30;99.90;;;;;;5112115;28;20019;-63
2022/12/06 18:51:11;;;;;;;21.52;10.93;;;5.20;99.90;;;;;;5113303;28;20479;-63
2022/12/06 18:53:37;;;;;;;18.75;10.60;;;5.20;99.90;;;;;;5078596;28;20520;-63
2022/12/06 18:56:06;;;;;;;18.15;10.50;;;5.20;99.90;;;;;;5072737;28;20107;-64
2022/12/06 18:58:32;;;;;;;18.80;10.65;;;5.20;99.90;;;;;;5071080;28;20480;-63
2022/12/06 19:00:58;;;;;;;20.20;11.13;;;5.20;99.90;;;;;;5072070;28;20023;-64
2022/12/06 19:03:24;;;;;;;19.58;11.07;;;5.20;99.90;;;;;;5071380;28;20032;-64
2022/12/06 19:05:50;;;;;;;17.85;11.52;;;5.20;99.90;;;;;;5070688;28;20024;-63
2022/12/06 19:08:15;;;;;;;17.77;11.65;;;5.30;99.90;;;;;;5070949;28;20099;-63
2022/12/06 19:10:41;;;;;;;17.83;10.55;;;5.40;99.90;;;;;;5070207;28;20025;-63
2022/12/06 19:13:07;;;;;;;18.55;11.15;;;5.40;99.90;;;;;;5069813;28;20028;-63
2022/12/06 19:15:32;;;;;;;20.65;12.50;;;5.40;99.90;;;;;;5072638;28;20024;-64
2022/12/06 19:17:58;;;;;;;18.50;11.77;;;5.30;99.90;;;;;;5072097;28;20033;-63
2022/12/06 19:20:23;;;;;;;21.25;12.00;;;5.30;99.90;;;;;;5070818;28;20017;-63
2022/12/06 19:22:49;;;;;;;18.73;11.27;;;5.20;99.90;;;;;;5070909;28;20435;-63
2022/12/06 19:25:16;;;;;;;18.95;12.13;;;5.20;99.90;;;;;;5072587;28;20027;-63
2022/12/06 19:27:42;;;;;;;15.75;10.43;;;5.20;99.90;;;;;;5071912;28;20078;-63
2022/12/06 19:30:09;;;;;;;18.55;11.00;;;5.20;99.90;;;;;;5072426;28;20029;-63
2022/12/06 19:32:34;;;;;;;17.45;10.77;;;5.20;99.90;;;;;;5054174;28;20048;-63
2022/12/06 19:35:02;;;;;;;19.13;11.07;;;5.20;99.90;;;;;;5051878;28;20063;-64
2022/12/06 19:37:28;;;;;;;17.80;10.43;;;5.20;99.90;;;;;;5052123;28;20053;-63
2022/12/06 19:39:54;;;;;;;17.30;10.38;;;5.20;99.90;;;;;;5052266;28;20063;-64
2022/12/06 19:45:05;;;;;;;15.15;10.48;;;5.20;99.90;;;;;;5052961;28;20492;-63
2022/12/06 19:47:30;;;;;;;15.35;10.02;;;5.10;99.90;;;;;;5052100;28;20051;-64
2022/12/06 19:49:56;;;;;;;20.77;10.65;;;5.10;99.90;;;;;;5069019;28;20063;-64
2022/12/06 19:52:22;;;;;;;17.25;10.32;;;5.10;99.90;;;;;;5073144;28;20024;-64
2022/12/06 19:54:48;;;;;;;18.45;10.70;;;5.10;99.90;;;;;;5112400;28;20121;-63
2022/12/06 19:57:14;;;;;;;18.63;11.30;;;5.10;99.90;;;;;;5112224;28;20023;-63
2022/12/06 19:59:40;;;;;;;19.02;10.90;;;5.10;99.90;;;;;;5095590;28;20370;-64
2022/12/06 20:02:08;;;;;;;19.90;11.18;;;5.10;99.90;;;;;;5091351;28;20020;-64
2022/12/06 20:04:38;;;;;;;18.10;11.20;;;5.10;99.90;;;;;;5073861;28;20024;-64
2022/12/06 20:07:04;;;;;;;18.58;11.10;;;5.10;99.90;;;;;;5076905;28;20476;-62
2022/12/06 20:09:31;;;;;;;19.33;11.32;;;5.20;99.90;;;;;;5110520;28;20055;-63
2022/12/06 20:12:00;;;;;;;20.13;11.60;;;5.30;99.90;;;;;;5093539;28;20016;-63
2022/12/06 20:14:29;;;;;;;19.70;12.55;;;5.30;99.90;;;;;;5112107;27;20035;-63
2022/12/06 20:16:55;;;;;;;22.85;12.27;;;5.40;99.90;;;;;;5111395;28;20110;-63
2022/12/06 20:19:21;;;;;;;17.77;10.85;;;5.40;99.90;;;;;;5092718;28;20110;-64
2022/12/06 20:21:47;;;;;;;18.45;10.48;;;5.40;99.90;;;;;;5112093;28;20029;-64
2022/12/06 20:24:15;;;;;;;20.17;11.27;;;5.40;99.90;;;;;;5099945;28;20024;-64
2022/12/06 20:26:41;;;;;;;19.13;11.63;;;5.40;99.90;;;;;;5091471;28;20130;-62
2022/12/06 20:29:07;;;;;;;16.58;11.77;;;5.40;99.90;;;;;;5096891;28;20111;-65
2022/12/06 20:31:34;;;;;;;18.67;11.98;;;5.30;99.90;;;;;;5091408;28;20030;-64
